sensor_id;sensor_type;location;lat;lon;timestamp;P1;durP1;ratioP1;P2;durP2;ratioP2
35306;SDS011;21420;52.196;21.416;2024-03-23T00:53:14;28.10;;;20.30;;
35306;SDS011;21420;52.196;21.416;2024-03-23T00:55:44;26.70;;;19.20;;
35306;SDS011;21420;52.196;21.416;2024-03-23T00:58:10;28.00;;;20.80;;
35306;SDS011;21420;52.196;21.416;2024-03-23T01:00:36;30.20;;;20.50;;
35306;SDS011;21420;52.196;21.416;2024-03-23T01:03:03;30.40;;;21.80;;
35306;SDS011;21420;52.196;21.416;2024-03-23T01:05:30;28.30;;;20.70;;
35306;SDS011;21420;52.196;21.416;2024-03-23T01:07:56;28.70;;;20.40;;
35306;SDS011;21420;52.196;21.416;2024-03-23T01:10:23;28.50;;;21.10;;
35306;SDS011;21420;52.196;21.416;2024-03-23T01:12:49;30.80;;;20.60;;
35306;SDS011;21420;52.196;21.416;2024-03-23T01:15:16;28.80;;;22.00;;
35306;SDS011;21420;52.196;21.416;2024-03-23T01:17:42;30.00;;;22.10;;
35306;SDS011;21420;52.196;21.416;2024-03-23T01:20:09;29.10;;;21.70;;
35306;SDS011;21420;52.196;21.416;2024-03-23T01:22:36;32.90;;;22.90;;
35306;SDS011;21420;52.196;21.416;2024-03-23T01:25:03;33.60;;;24.40;;
35306;SDS011;21420;52.196;21.416;2024-03-23T01:27:30;30.80;;;24.20;;
35306;SDS011;21420;52.196;21.416;2024-03-23T01:29:56;32.00;;;24.00;;
35306;SDS011;21420;52.196;21.416;2024-03-23T01:32:23;35.00;;;25.00;;
35306;SDS011;21420;52.196;21.416;2024-03-23T01:34:50;32.80;;;24.50;;
35306;SDS011;21420;52.196;21.416;2024-03-23T01:37:16;29.90;;;23.60;;
35306;SDS011;21420;52.196;21.416;2024-03-23T01:39:43;34.20;;;25.80;;
35306;SDS011;21420;52.196;21.416;2024-03-23T01:42:09;32.20;;;24.40;;
35306;SDS011;21420;52.196;21.416;2024-03-23T01:44:36;30.70;;;23.80;;
35306;SDS011;21420;52.196;21.416;2024-03-23T01:47:04;31.10;;;24.00;;
35306;SDS011;21420;52.196;21.416;2024-03-23T01:49:33;34.50;;;23.80;;
35306;SDS011;21420;52.196;21.416;2024-03-23T01:51:59;33.20;;;23.30;;
35306;SDS011;21420;52.196;21.416;2024-03-23T01:54:26;31.40;;;24.30;;
35306;SDS011;21420;52.196;21.416;2024-03-23T01:56:53;34.80;;;25.40;;
35306;SDS011;21420;52.196;21.416;2024-03-23T01:59:20;33.80;;;25.10;;
35306;SDS011;21420;52.196;21.416;2024-03-23T02:01:47;32.70;;;25.10;;
35306;SDS011;21420;52.196;21.416;2024-03-23T02:04:13;33.10;;;24.80;;
35306;SDS011;21420;52.196;21.416;2024-03-23T02:06:40;34.40;;;24.50;;
35306;SDS011;21420;52.196;21.416;2024-03-23T02:09:06;34.50;;;25.00;;
35306;SDS011;21420;52.196;21.416;2024-03-23T02:11:33;30.50;;;23.80;;
35306;SDS011;21420;52.196;21.416;2024-03-23T02:14:00;36.40;;;25.80;;
35306;SDS011;21420;52.196;21.416;2024-03-23T02:16:50;37.70;;;25.60;;
35306;SDS011;21420;52.196;21.416;2024-03-23T02:19:16;33.00;;;25.40;;
35306;SDS011;21420;52.196;21.416;2024-03-23T02:21:43;37.20;;;25.80;;
35306;SDS011;21420;52.196;21.416;2024-03-23T02:24:09;33.80;;;25.20;;
35306;SDS011;21420;52.196;21.416;2024-03-23T02:26:36;37.00;;;24.60;;
35306;SDS011;21420;52.196;21.416;2024-03-23T02:29:02;34.70;;;24.40;;
35306;SDS011;21420;52.196;21.416;2024-03-23T02:31:29;32.50;;;24.50;;
35306;SDS011;21420;52.196;21.416;2024-03-23T02:33:55;34.60;;;26.50;;
35306;SDS011;21420;52.196;21.416;2024-03-23T02:36:22;35.00;;;26.30;;
35306;SDS011;21420;52.196;21.416;2024-03-23T02:38:48;33.50;;;25.40;;
35306;SDS011;21420;52.196;21.416;2024-03-23T02:41:15;36.90;;;26.90;;
35306;SDS011;21420;52.196;21.416;2024-03-23T02:43:51;33.40;;;25.50;;
35306;SDS011;21420;52.196;21.416;2024-03-23T02:46:18;30.80;;;24.20;;
35306;SDS011;21420;52.196;21.416;2024-03-23T02:48:44;35.70;;;25.40;;
35306;SDS011;21420;52.196;21.416;2024-03-23T02:51:11;32.40;;;25.10;;
35306;SDS011;21420;52.196;21.416;2024-03-23T02:53:37;30.90;;;25.10;;
35306;SDS011;21420;52.196;21.416;2024-03-23T02:56:04;33.90;;;24.80;;
35306;SDS011;21420;52.196;21.416;2024-03-23T02:58:30;34.10;;;25.00;;
35306;SDS011;21420;52.196;21.416;2024-03-23T03:00:57;33.00;;;24.00;;
35306;SDS011;21420;52.196;21.416;2024-03-23T03:03:24;31.80;;;24.70;;
35306;SDS011;21420;52.196;21.416;2024-03-23T03:05:56;32.90;;;25.60;;
35306;SDS011;21420;52.196;21.416;2024-03-23T03:08:23;33.60;;;25.20;;
35306;SDS011;21420;52.196;21.416;2024-03-23T03:10:49;30.90;;;24.40;;
35306;SDS011;21420;52.196;21.416;2024-03-23T03:13:16;30.00;;;23.50;;
35306;SDS011;21420;52.196;21.416;2024-03-23T03:15:43;33.90;;;24.00;;
35306;SDS011;21420;52.196;21.416;2024-03-23T03:18:10;31.80;;;24.10;;
35306;SDS011;21420;52.196;21.416;2024-03-23T03:20:39;34.10;;;24.70;;
35306;SDS011;21420;52.196;21.416;2024-03-23T03:23:07;30.20;;;24.10;;
35306;SDS011;21420;52.196;21.416;2024-03-23T03:25:34;37.70;;;25.70;;
35306;SDS011;21420;52.196;21.416;2024-03-23T03:28:00;31.30;;;24.20;;
35306;SDS011;21420;52.196;21.416;2024-03-23T03:30:28;29.50;;;23.30;;
35306;SDS011;21420;52.196;21.416;2024-03-23T03:32:54;32.50;;;24.60;;
35306;SDS011;21420;52.196;21.416;2024-03-23T03:35:21;34.50;;;22.90;;
35306;SDS011;21420;52.196;21.416;2024-03-23T03:37:48;29.40;;;23.70;;
35306;SDS011;21420;52.196;21.416;2024-03-23T03:40:15;30.40;;;22.90;;
35306;SDS011;21420;52.196;21.416;2024-03-23T03:42:41;34.50;;;24.00;;
35306;SDS011;21420;52.196;21.416;2024-03-23T03:45:08;30.90;;;22.80;;
35306;SDS011;21420;52.196;21.416;2024-03-23T03:47:34;32.70;;;23.50;;
35306;SDS011;21420;52.196;21.416;2024-03-23T03:50:01;33.00;;;24.90;;
35306;SDS011;21420;52.196;21.416;2024-03-23T03:52:27;27.80;;;23.50;;
35306;SDS011;21420;52.196;21.416;2024-03-23T03:55:00;30.40;;;22.70;;
35306;SDS011;21420;52.196;21.416;2024-03-23T03:57:28;30.30;;;23.30;;
35306;SDS011;21420;52.196;21.416;2024-03-23T03:59:55;34.50;;;25.90;;
35306;SDS011;21420;52.196;21.416;2024-03-23T04:02:21;32.60;;;25.60;;
35306;SDS011;21420;52.196;21.416;2024-03-23T04:04:48;31.10;;;24.10;;
35306;SDS011;21420;52.196;21.416;2024-03-23T04:07:14;31.70;;;24.40;;
35306;SDS011;21420;52.196;21.416;2024-03-23T04:09:41;29.20;;;23.60;;
35306;SDS011;21420;52.196;21.416;2024-03-23T04:12:07;30.40;;;23.30;;
35306;SDS011;21420;52.196;21.416;2024-03-23T04:14:34;29.80;;;23.10;;
35306;SDS011;21420;52.196;21.416;2024-03-23T04:17:00;27.90;;;23.10;;
35306;SDS011;21420;52.196;21.416;2024-03-23T04:19:27;29.20;;;22.60;;
35306;SDS011;21420;52.196;21.416;2024-03-23T04:21:53;27.00;;;21.70;;
35306;SDS011;21420;52.196;21.416;2024-03-23T04:24:20;27.30;;;21.50;;
35306;SDS011;21420;52.196;21.416;2024-03-23T04:26:48;27.00;;;20.60;;
35306;SDS011;21420;52.196;21.416;2024-03-23T04:29:15;27.40;;;21.40;;
35306;SDS011;21420;52.196;21.416;2024-03-23T04:31:41;25.20;;;21.40;;
35306;SDS011;21420;52.196;21.416;2024-03-23T04:34:08;26.00;;;20.80;;
35306;SDS011;21420;52.196;21.416;2024-03-23T04:36:34;25.50;;;21.10;;
35306;SDS011;21420;52.196;21.416;2024-03-23T04:39:00;26.00;;;20.80;;
35306;SDS011;21420;52.196;21.416;2024-03-23T04:41:28;28.90;;;22.60;;
35306;SDS011;21420;52.196;21.416;2024-03-23T04:43:54;39.60;;;31.90;;
35306;SDS011;21420;52.196;21.416;2024-03-23T04:46:21;32.70;;;25.10;;
35306;SDS011;21420;52.196;21.416;2024-03-23T04:48:47;29.20;;;22.90;;
35306;SDS011;21420;52.196;21.416;2024-03-23T04:51:21;29.20;;;24.10;;
35306;SDS011;21420;52.196;21.416;2024-03-23T04:53:50;31.50;;;23.00;;
35306;SDS011;21420;52.196;21.416;2024-03-23T04:56:17;30.50;;;23.60;;
35306;SDS011;21420;52.196;21.416;2024-03-23T04:58:44;30.80;;;23.10;;
35306;SDS011;21420;52.196;21.416;2024-03-23T05:01:11;28.20;;;22.30;;
35306;SDS011;21420;52.196;21.416;2024-03-23T05:03:38;29.30;;;22.00;;
35306;SDS011;21420;52.196;21.416;2024-03-23T05:06:04;27.70;;;22.90;;
35306;SDS011;21420;52.196;21.416;2024-03-23T05:08:31;30.40;;;23.10;;
35306;SDS011;21420;52.196;21.416;2024-03-23T05:10:58;30.30;;;23.80;;
35306;SDS011;21420;52.196;21.416;2024-03-23T05:13:24;28.30;;;21.90;;
35306;SDS011;21420;52.196;21.416;2024-03-23T05:15:54;30.70;;;23.30;;
35306;SDS011;21420;52.196;21.416;2024-03-23T05:18:21;28.70;;;23.40;;
35306;SDS011;21420;52.196;21.416;2024-03-23T05:20:48;31.90;;;24.40;;
35306;SDS011;21420;52.196;21.416;2024-03-23T05:23:14;32.70;;;24.40;;
35306;SDS011;21420;52.196;21.416;2024-03-23T05:25:41;32.10;;;25.00;;
35306;SDS011;21420;52.196;21.416;2024-03-23T05:28:08;31.10;;;24.80;;
35306;SDS011;21420;52.196;21.416;2024-03-23T05:30:34;32.00;;;23.60;;
35306;SDS011;21420;52.196;21.416;2024-03-23T05:33:01;31.60;;;25.30;;
35306;SDS011;21420;52.196;21.416;2024-03-23T05:35:27;29.50;;;24.20;;
35306;SDS011;21420;52.196;21.416;2024-03-23T05:37:54;33.60;;;25.20;;
35306;SDS011;21420;52.196;21.416;2024-03-23T05:40:20;34.80;;;26.60;;
35306;SDS011;21420;52.196;21.416;2024-03-23T05:42:46;33.40;;;26.20;;
35306;SDS011;21420;52.196;21.416;2024-03-23T05:45:13;35.60;;;26.00;;
35306;SDS011;21420;52.196;21.416;2024-03-23T05:47:40;31.60;;;25.50;;
35306;SDS011;21420;52.196;21.416;2024-03-23T05:50:06;31.90;;;25.90;;
35306;SDS011;21420;52.196;21.416;2024-03-23T05:52:33;35.10;;;25.80;;
35306;SDS011;21420;52.196;21.416;2024-03-23T05:55:00;34.00;;;25.40;;
35306;SDS011;21420;52.196;21.416;2024-03-23T05:57:26;31.40;;;25.30;;
35306;SDS011;21420;52.196;21.416;2024-03-23T05:59:53;38.00;;;26.10;;
35306;SDS011;21420;52.196;21.416;2024-03-23T06:02:20;35.00;;;26.10;;
35306;SDS011;21420;52.196;21.416;2024-03-23T06:04:46;34.20;;;25.50;;
35306;SDS011;21420;52.196;21.416;2024-03-23T06:07:12;33.10;;;26.20;;
35306;SDS011;21420;52.196;21.416;2024-03-23T06:09:40;32.60;;;26.40;;
35306;SDS011;21420;52.196;21.416;2024-03-23T06:12:08;30.30;;;24.80;;
35306;SDS011;21420;52.196;21.416;2024-03-23T06:14:34;33.30;;;26.00;;
35306;SDS011;21420;52.196;21.416;2024-03-23T06:17:01;33.80;;;26.50;;
35306;SDS011;21420;52.196;21.416;2024-03-23T06:19:28;34.80;;;26.00;;
35306;SDS011;21420;52.196;21.416;2024-03-23T06:21:55;36.50;;;25.20;;
35306;SDS011;21420;52.196;21.416;2024-03-23T06:24:21;33.60;;;25.60;;
35306;SDS011;21420;52.196;21.416;2024-03-23T06:26:48;34.60;;;26.00;;
35306;SDS011;21420;52.196;21.416;2024-03-23T06:29:14;31.80;;;25.50;;
35306;SDS011;21420;52.196;21.416;2024-03-23T06:31:41;36.80;;;26.30;;
35306;SDS011;21420;52.196;21.416;2024-03-23T06:34:07;37.80;;;27.40;;
35306;SDS011;21420;52.196;21.416;2024-03-23T06:36:34;34.40;;;26.60;;
35306;SDS011;21420;52.196;21.416;2024-03-23T06:39:00;33.50;;;24.90;;
35306;SDS011;21420;52.196;21.416;2024-03-23T06:41:27;37.60;;;26.00;;
35306;SDS011;21420;52.196;21.416;2024-03-23T06:43:53;33.40;;;25.30;;
35306;SDS011;21420;52.196;21.416;2024-03-23T06:46:22;36.00;;;26.40;;
35306;SDS011;21420;52.196;21.416;2024-03-23T06:48:49;30.90;;;24.80;;
35306;SDS011;21420;52.196;21.416;2024-03-23T06:51:15;35.60;;;25.90;;
35306;SDS011;21420;52.196;21.416;2024-03-23T06:53:42;34.60;;;24.60;;
35306;SDS011;21420;52.196;21.416;2024-03-23T06:56:08;35.90;;;26.10;;
35306;SDS011;21420;52.196;21.416;2024-03-23T06:58:38;35.30;;;27.70;;
35306;SDS011;21420;52.196;21.416;2024-03-23T07:01:04;34.30;;;26.00;;
35306;SDS011;21420;52.196;21.416;2024-03-23T07:03:31;34.80;;;26.50;;
35306;SDS011;21420;52.196;21.416;2024-03-23T07:05:58;36.40;;;26.90;;
35306;SDS011;21420;52.196;21.416;2024-03-23T07:08:25;35.30;;;27.10;;
35306;SDS011;21420;52.196;21.416;2024-03-23T07:10:51;39.00;;;27.20;;
35306;SDS011;21420;52.196;21.416;2024-03-23T07:13:18;37.00;;;26.10;;
35306;SDS011;21420;52.196;21.416;2024-03-23T07:15:50;36.70;;;26.80;;
35306;SDS011;21420;52.196;21.416;2024-03-23T07:18:17;34.40;;;26.00;;
35306;SDS011;21420;52.196;21.416;2024-03-23T07:20:51;35.00;;;27.10;;
35306;SDS011;21420;52.196;21.416;2024-03-23T07:23:22;35.60;;;27.70;;
35306;SDS011;21420;52.196;21.416;2024-03-23T07:25:57;35.30;;;27.80;;
35306;SDS011;21420;52.196;21.416;2024-03-23T07:28:24;37.50;;;28.40;;
35306;SDS011;21420;52.196;21.416;2024-03-23T07:31:06;34.10;;;27.20;;
35306;SDS011;21420;52.196;21.416;2024-03-23T07:33:37;36.90;;;28.00;;
35306;SDS011;21420;52.196;21.416;2024-03-23T07:36:07;34.30;;;27.00;;
35306;SDS011;21420;52.196;21.416;2024-03-23T07:38:34;39.00;;;27.70;;
35306;SDS011;21420;52.196;21.416;2024-03-23T07:41:07;32.40;;;27.50;;
35306;SDS011;21420;52.196;21.416;2024-03-23T07:43:38;34.10;;;27.00;;
35306;SDS011;21420;52.196;21.416;2024-03-23T07:46:05;32.60;;;25.90;;
35306;SDS011;21420;52.196;21.416;2024-03-23T07:48:31;37.60;;;26.10;;
35306;SDS011;21420;52.196;21.416;2024-03-23T07:51:02;32.30;;;25.00;;
35306;SDS011;21420;52.196;21.416;2024-03-23T07:53:29;28.90;;;23.30;;
35306;SDS011;21420;52.196;21.416;2024-03-23T07:55:58;27.70;;;22.20;;
35306;SDS011;21420;52.196;21.416;2024-03-23T07:58:29;31.00;;;24.30;;
35306;SDS011;21420;52.196;21.416;2024-03-23T08:00:56;28.40;;;23.80;;
35306;SDS011;21420;52.196;21.416;2024-03-23T08:03:31;31.40;;;22.10;;
35306;SDS011;21420;52.196;21.416;2024-03-23T08:05:57;27.60;;;21.20;;
35306;SDS011;21420;52.196;21.416;2024-03-23T08:08:25;29.20;;;21.80;;
35306;SDS011;21420;52.196;21.416;2024-03-23T08:10:51;29.00;;;20.40;;
35306;SDS011;21420;52.196;21.416;2024-03-23T08:13:19;26.90;;;22.70;;
35306;SDS011;21420;52.196;21.416;2024-03-23T08:15:46;28.90;;;21.10;;
35306;SDS011;21420;52.196;21.416;2024-03-23T08:18:13;28.40;;;21.60;;
35306;SDS011;21420;52.196;21.416;2024-03-23T08:20:41;27.10;;;21.60;;
35306;SDS011;21420;52.196;21.416;2024-03-23T08:23:08;28.10;;;22.00;;
35306;SDS011;21420;52.196;21.416;2024-03-23T08:25:35;30.40;;;21.90;;
35306;SDS011;21420;52.196;21.416;2024-03-23T08:28:01;29.80;;;23.20;;
35306;SDS011;21420;52.196;21.416;2024-03-23T08:30:28;30.60;;;22.90;;
35306;SDS011;21420;52.196;21.416;2024-03-23T08:32:55;25.90;;;21.40;;
35306;SDS011;21420;52.196;21.416;2024-03-23T08:35:22;30.00;;;22.70;;
35306;SDS011;21420;52.196;21.416;2024-03-23T08:37:48;30.20;;;21.30;;
35306;SDS011;21420;52.196;21.416;2024-03-23T08:40:15;27.60;;;20.60;;
35306;SDS011;21420;52.196;21.416;2024-03-23T08:42:41;27.70;;;20.70;;
35306;SDS011;21420;52.196;21.416;2024-03-23T08:45:08;25.40;;;19.90;;
35306;SDS011;21420;52.196;21.416;2024-03-23T08:47:35;27.00;;;19.30;;
35306;SDS011;21420;52.196;21.416;2024-03-23T08:50:02;27.30;;;18.70;;
35306;SDS011;21420;52.196;21.416;2024-03-23T08:52:28;27.70;;;19.60;;
35306;SDS011;21420;52.196;21.416;2024-03-23T08:54:55;24.50;;;18.70;;
35306;SDS011;21420;52.196;21.416;2024-03-23T08:57:22;26.20;;;19.80;;
35306;SDS011;21420;52.196;21.416;2024-03-23T08:59:50;28.50;;;20.10;;
35306;SDS011;21420;52.196;21.416;2024-03-23T09:02:16;24.60;;;18.80;;
35306;SDS011;21420;52.196;21.416;2024-03-23T09:04:43;27.00;;;19.30;;
35306;SDS011;21420;52.196;21.416;2024-03-23T09:07:11;34.80;;;24.20;;
35306;SDS011;21420;52.196;21.416;2024-03-23T09:09:38;25.00;;;18.60;;
35306;SDS011;21420;52.196;21.416;2024-03-23T09:12:06;22.80;;;17.40;;
35306;SDS011;21420;52.196;21.416;2024-03-23T09:14:33;25.70;;;19.80;;
35306;SDS011;21420;52.196;21.416;2024-03-23T09:17:00;33.00;;;26.00;;
35306;SDS011;21420;52.196;21.416;2024-03-23T09:19:28;25.20;;;19.30;;
35306;SDS011;21420;52.196;21.416;2024-03-23T09:21:56;19.00;;;16.40;;
35306;SDS011;21420;52.196;21.416;2024-03-23T09:24:22;19.90;;;16.00;;
35306;SDS011;21420;52.196;21.416;2024-03-23T09:26:49;19.00;;;15.40;;
35306;SDS011;21420;52.196;21.416;2024-03-23T09:29:15;19.80;;;15.70;;
35306;SDS011;21420;52.196;21.416;2024-03-23T09:31:42;23.20;;;15.30;;
35306;SDS011;21420;52.196;21.416;2024-03-23T09:34:08;17.00;;;14.20;;
35306;SDS011;21420;52.196;21.416;2024-03-23T09:36:35;17.30;;;14.40;;
35306;SDS011;21420;52.196;21.416;2024-03-23T09:39:01;17.90;;;14.10;;
35306;SDS011;21420;52.196;21.416;2024-03-23T09:41:30;16.70;;;14.30;;
35306;SDS011;21420;52.196;21.416;2024-03-23T09:43:56;17.40;;;14.00;;
35306;SDS011;21420;52.196;21.416;2024-03-23T09:46:23;17.90;;;14.70;;
35306;SDS011;21420;52.196;21.416;2024-03-23T09:48:49;17.70;;;14.40;;
35306;SDS011;21420;52.196;21.416;2024-03-23T09:51:16;17.20;;;13.20;;
35306;SDS011;21420;52.196;21.416;2024-03-23T09:53:43;15.80;;;13.70;;
35306;SDS011;21420;52.196;21.416;2024-03-23T09:56:09;16.10;;;13.50;;
35306;SDS011;21420;52.196;21.416;2024-03-23T09:58:36;16.00;;;12.20;;
35306;SDS011;21420;52.196;21.416;2024-03-23T10:01:02;15.50;;;12.00;;
35306;SDS011;21420;52.196;21.416;2024-03-23T10:03:30;14.40;;;12.00;;
35306;SDS011;21420;52.196;21.416;2024-03-23T10:06:02;15.80;;;12.90;;
35306;SDS011;21420;52.196;21.416;2024-03-23T10:08:31;16.10;;;12.10;;
35306;SDS011;21420;52.196;21.416;2024-03-23T10:11:14;14.10;;;11.70;;
35306;SDS011;21420;52.196;21.416;2024-03-23T10:13:42;14.90;;;12.10;;
35306;SDS011;21420;52.196;21.416;2024-03-23T10:16:10;15.60;;;12.00;;
35306;SDS011;21420;52.196;21.416;2024-03-23T10:18:37;17.70;;;11.90;;
35306;SDS011;21420;52.196;21.416;2024-03-23T10:21:10;15.10;;;12.00;;
35306;SDS011;21420;52.196;21.416;2024-03-23T10:23:39;14.50;;;12.00;;
35306;SDS011;21420;52.196;21.416;2024-03-23T10:26:14;13.00;;;11.60;;
35306;SDS011;21420;52.196;21.416;2024-03-23T10:28:58;13.70;;;11.00;;
35306;SDS011;21420;52.196;21.416;2024-03-23T10:31:37;12.70;;;10.70;;
35306;SDS011;21420;52.196;21.416;2024-03-23T10:34:07;11.60;;;10.40;;
35306;SDS011;21420;52.196;21.416;2024-03-23T10:36:35;12.20;;;10.30;;
35306;SDS011;21420;52.196;21.416;2024-03-23T10:39:07;11.60;;;10.40;;
35306;SDS011;21420;52.196;21.416;2024-03-23T10:41:34;11.20;;;10.00;;
35306;SDS011;21420;52.196;21.416;2024-03-23T10:44:01;11.60;;;10.40;;
35306;SDS011;21420;52.196;21.416;2024-03-23T10:46:28;11.00;;;9.90;;
35306;SDS011;21420;52.196;21.416;2024-03-23T10:48:55;16.00;;;11.20;;
35306;SDS011;21420;52.196;21.416;2024-03-23T10:51:21;10.90;;;9.40;;
35306;SDS011;21420;52.196;21.416;2024-03-23T10:53:48;11.00;;;9.90;;
35306;SDS011;21420;52.196;21.416;2024-03-23T10:56:15;11.40;;;9.50;;
35306;SDS011;21420;52.196;21.416;2024-03-23T10:58:43;11.30;;;10.20;;
35306;SDS011;21420;52.196;21.416;2024-03-23T11:01:12;11.20;;;9.40;;
35306;SDS011;21420;52.196;21.416;2024-03-23T11:03:44;11.40;;;10.20;;
35306;SDS011;21420;52.196;21.416;2024-03-23T11:06:33;10.70;;;9.70;;
35306;SDS011;21420;52.196;21.416;2024-03-23T11:15:02;10.40;;;9.20;;
35306;SDS011;21420;52.196;21.416;2024-03-23T11:17:31;10.40;;;7.70;;
35306;SDS011;21420;52.196;21.416;2024-03-23T11:19:58;9.60;;;8.60;;
35306;SDS011;21420;52.196;21.416;2024-03-23T11:27:48;9.30;;;8.40;;
35306;SDS011;21420;52.196;21.416;2024-03-23T11:30:24;8.70;;;7.80;;
35306;SDS011;21420;52.196;21.416;2024-03-23T11:32:53;9.70;;;8.30;;
35306;SDS011;21420;52.196;21.416;2024-03-23T11:35:31;8.20;;;7.30;;
35306;SDS011;21420;52.196;21.416;2024-03-23T11:38:09;7.80;;;7.00;;
35306;SDS011;21420;52.196;21.416;2024-03-23T11:40:57;9.40;;;7.90;;
35306;SDS011;21420;52.196;21.416;2024-03-23T11:43:28;9.90;;;8.30;;
35306;SDS011;21420;52.196;21.416;2024-03-23T11:45:55;9.00;;;7.60;;
35306;SDS011;21420;52.196;21.416;2024-03-23T11:48:22;8.80;;;7.90;;
35306;SDS011;21420;52.196;21.416;2024-03-23T11:50:50;8.60;;;7.80;;
35306;SDS011;21420;52.196;21.416;2024-03-23T11:53:24;10.70;;;7.70;;
35306;SDS011;21420;52.196;21.416;2024-03-23T11:55:55;9.30;;;7.10;;
35306;SDS011;21420;52.196;21.416;2024-03-23T11:58:23;7.60;;;6.50;;
35306;SDS011;21420;52.196;21.416;2024-03-23T12:00:58;7.10;;;6.40;;
35306;SDS011;21420;52.196;21.416;2024-03-23T12:03:26;7.40;;;6.70;;
35306;SDS011;21420;52.196;21.416;2024-03-23T12:05:55;7.50;;;6.70;;
35306;SDS011;21420;52.196;21.416;2024-03-23T12:11:06;8.90;;;6.70;;
35306;SDS011;21420;52.196;21.416;2024-03-23T12:13:38;8.00;;;7.10;;
35306;SDS011;21420;52.196;21.416;2024-03-23T12:16:11;8.50;;;6.40;;
35306;SDS011;21420;52.196;21.416;2024-03-23T12:18:50;7.80;;;7.00;;
35306;SDS011;21420;52.196;21.416;2024-03-23T12:21:17;8.10;;;6.70;;
35306;SDS011;21420;52.196;21.416;2024-03-23T12:23:44;12.20;;;10.50;;
35306;SDS011;21420;52.196;21.416;2024-03-23T12:26:13;20.10;;;14.70;;
35306;SDS011;21420;52.196;21.416;2024-03-23T12:28:39;9.60;;;7.40;;
35306;SDS011;21420;52.196;21.416;2024-03-23T12:31:06;12.50;;;11.10;;
35306;SDS011;21420;52.196;21.416;2024-03-23T12:33:32;8.60;;;7.20;;
35306;SDS011;21420;52.196;21.416;2024-03-23T12:35:59;13.40;;;12.20;;
35306;SDS011;21420;52.196;21.416;2024-03-23T12:38:25;15.70;;;10.60;;
35306;SDS011;21420;52.196;21.416;2024-03-23T12:40:52;13.10;;;9.80;;
35306;SDS011;21420;52.196;21.416;2024-03-23T12:43:18;34.80;;;30.30;;
35306;SDS011;21420;52.196;21.416;2024-03-23T12:45:48;9.10;;;8.10;;
35306;SDS011;21420;52.196;21.416;2024-03-23T12:48:16;10.30;;;8.40;;
35306;SDS011;21420;52.196;21.416;2024-03-23T12:50:43;11.40;;;8.50;;
35306;SDS011;21420;52.196;21.416;2024-03-23T12:53:09;9.40;;;8.10;;
35306;SDS011;21420;52.196;21.416;2024-03-23T12:55:36;9.90;;;8.90;;
35306;SDS011;21420;52.196;21.416;2024-03-23T12:58:03;12.70;;;11.40;;
35306;SDS011;21420;52.196;21.416;2024-03-23T13:00:31;41.20;;;22.80;;
35306;SDS011;21420;52.196;21.416;2024-03-23T13:02:57;11.00;;;8.20;;
35306;SDS011;21420;52.196;21.416;2024-03-23T13:05:24;14.00;;;10.50;;
35306;SDS011;21420;52.196;21.416;2024-03-23T13:07:51;19.80;;;18.00;;
35306;SDS011;21420;52.196;21.416;2024-03-23T13:10:17;35.30;;;24.40;;
35306;SDS011;21420;52.196;21.416;2024-03-23T13:12:43;61.10;;;30.00;;
35306;SDS011;21420;52.196;21.416;2024-03-23T13:15:10;41.90;;;26.30;;
35306;SDS011;21420;52.196;21.416;2024-03-23T13:17:36;50.80;;;25.30;;
35306;SDS011;21420;52.196;21.416;2024-03-23T13:20:03;34.90;;;22.50;;
35306;SDS011;21420;52.196;21.416;2024-03-23T13:22:30;18.00;;;13.80;;
35306;SDS011;21420;52.196;21.416;2024-03-23T13:24:57;10.10;;;7.80;;
35306;SDS011;21420;52.196;21.416;2024-03-23T13:27:23;10.70;;;7.70;;
35306;SDS011;21420;52.196;21.416;2024-03-23T13:29:50;24.50;;;15.80;;
35306;SDS011;21420;52.196;21.416;2024-03-23T13:32:16;13.50;;;10.20;;
35306;SDS011;21420;52.196;21.416;2024-03-23T13:34:44;16.00;;;9.60;;
35306;SDS011;21420;52.196;21.416;2024-03-23T13:37:10;109.20;;;83.70;;
35306;SDS011;21420;52.196;21.416;2024-03-23T13:39:37;18.80;;;16.60;;
35306;SDS011;21420;52.196;21.416;2024-03-23T13:42:04;8.70;;;7.00;;
35306;SDS011;21420;52.196;21.416;2024-03-23T13:44:30;26.90;;;14.20;;
35306;SDS011;21420;52.196;21.416;2024-03-23T13:46:57;13.00;;;7.60;;
35306;SDS011;21420;52.196;21.416;2024-03-23T13:49:28;7.50;;;5.80;;
35306;SDS011;21420;52.196;21.416;2024-03-23T13:51:56;8.40;;;7.20;;
35306;SDS011;21420;52.196;21.416;2024-03-23T13:54:26;8.00;;;6.80;;
35306;SDS011;21420;52.196;21.416;2024-03-23T13:56:56;11.50;;;7.70;;
35306;SDS011;21420;52.196;21.416;2024-03-23T13:59:23;10.00;;;7.70;;
35306;SDS011;21420;52.196;21.416;2024-03-23T14:01:50;9.20;;;7.20;;
35306;SDS011;21420;52.196;21.416;2024-03-23T14:04:21;12.40;;;8.90;;
35306;SDS011;21420;52.196;21.416;2024-03-23T14:06:49;11.50;;;7.60;;
35306;SDS011;21420;52.196;21.416;2024-03-23T14:09:15;9.40;;;7.90;;
35306;SDS011;21420;52.196;21.416;2024-03-23T14:11:47;12.40;;;8.70;;
35306;SDS011;21420;52.196;21.416;2024-03-23T14:14:13;9.30;;;8.10;;
35306;SDS011;21420;52.196;21.416;2024-03-23T14:16:44;10.90;;;8.50;;
35306;SDS011;21420;52.196;21.416;2024-03-23T14:19:10;12.20;;;7.70;;
35306;SDS011;21420;52.196;21.416;2024-03-23T14:21:37;9.70;;;7.60;;
35306;SDS011;21420;52.196;21.416;2024-03-23T14:24:04;9.20;;;7.90;;
35306;SDS011;21420;52.196;21.416;2024-03-23T14:26:31;10.20;;;7.20;;
35306;SDS011;21420;52.196;21.416;2024-03-23T14:28:57;10.80;;;8.20;;
35306;SDS011;21420;52.196;21.416;2024-03-23T14:31:24;11.30;;;8.50;;
35306;SDS011;21420;52.196;21.416;2024-03-23T14:33:51;9.60;;;8.10;;
35306;SDS011;21420;52.196;21.416;2024-03-23T14:36:18;9.20;;;7.90;;
35306;SDS011;21420;52.196;21.416;2024-03-23T14:38:48;12.30;;;8.20;;
35306;SDS011;21420;52.196;21.416;2024-03-23T14:41:15;14.60;;;10.60;;
35306;SDS011;21420;52.196;21.416;2024-03-23T14:43:45;12.60;;;11.20;;
35306;SDS011;21420;52.196;21.416;2024-03-23T14:46:15;16.40;;;10.70;;
35306;SDS011;21420;52.196;21.416;2024-03-23T14:48:43;12.30;;;9.70;;
35306;SDS011;21420;52.196;21.416;2024-03-23T14:51:10;10.50;;;8.70;;
35306;SDS011;21420;52.196;21.416;2024-03-23T14:53:38;9.60;;;8.40;;
35306;SDS011;21420;52.196;21.416;2024-03-23T14:56:09;11.00;;;8.90;;
35306;SDS011;21420;52.196;21.416;2024-03-23T14:58:39;11.10;;;9.30;;
35306;SDS011;21420;52.196;21.416;2024-03-23T15:01:06;10.40;;;9.10;;
35306;SDS011;21420;52.196;21.416;2024-03-23T15:03:37;23.00;;;14.30;;
35306;SDS011;21420;52.196;21.416;2024-03-23T15:06:09;23.30;;;19.00;;
35306;SDS011;21420;52.196;21.416;2024-03-23T15:08:36;48.50;;;42.00;;
35306;SDS011;21420;52.196;21.416;2024-03-23T15:11:04;17.80;;;14.50;;
35306;SDS011;21420;52.196;21.416;2024-03-23T15:13:34;16.70;;;12.70;;
35306;SDS011;21420;52.196;21.416;2024-03-23T15:16:01;13.10;;;10.90;;
35306;SDS011;21420;52.196;21.416;2024-03-23T15:18:34;77.80;;;63.30;;
35306;SDS011;21420;52.196;21.416;2024-03-23T15:21:02;31.70;;;27.90;;
35306;SDS011;21420;52.196;21.416;2024-03-23T15:23:32;82.40;;;65.30;;